Time;durP1;ratioP1;P1;durP2;ratioP2;P2;SDS_P1;SDS_P2;PMS_P1;PMS_P2;Temp;Humidity;BMP_temperature;BMP_pressure;BME280_temperature;BME280_humidity;BME280_pressure;Samples;Min_cycle;Max_cycle;Signal;HPM_P1;HPM_P2
2021/10/02 00:36:27;;;;;;;6.47;5.47;;;10.00;99.90;;;;;;2082319;28;20034;-72
2021/10/02 00:41:10;;;;;;;7.32;5.38;;;10.00;99.90;;;;;;2066026;28;20050;-72
2021/10/02 00:45:32;;;;;;;6.18;5.32;;;9.90;99.90;;;;;;2082125;28;20033;-72
2021/10/02 00:46:34;;;;;;;6.35;5.50;;;9.90;99.90;;;;;;2081502;28;20094;-72
2021/10/02 00:47:35;;;;;;;6.22;5.25;;;9.90;99.90;;;;;;2073292;28;20065;-72
2021/10/02 00:48:39;;;;;;;5.65;5.15;;;9.90;99.90;;;;;;2081413;28;20037;-71
2021/10/02 00:49:42;;;;;;;6.18;5.38;;;9.90;99.90;;;;;;2081899;28;20044;-72
2021/10/02 00:50:45;;;;;;;7.20;5.82;;;9.90;99.90;;;;;;2081166;28;20040;-71
2021/10/02 00:51:45;;;;;;;6.35;5.63;;;9.90;99.90;;;;;;2080559;28;20115;-72
2021/10/02 00:52:47;;;;;;;6.40;5.57;;;9.90;99.90;;;;;;2081974;28;20551;-71
2021/10/02 00:53:51;;;;;;;6.72;5.85;;;9.90;99.90;;;;;;2081749;28;20033;-72
2021/10/02 00:54:51;;;;;;;6.68;6.00;;;9.90;99.90;;;;;;2081725;28;20026;-72
2021/10/02 00:55:52;;;;;;;8.93;6.45;;;9.90;99.90;;;;;;2081665;28;20032;-73
2021/10/02 00:56:53;;;;;;;7.07;6.15;;;9.90;99.90;;;;;;2081749;28;20112;-73
2021/10/02 00:57:54;;;;;;;6.40;5.75;;;9.90;99.90;;;;;;2081825;28;20027;-73
2021/10/02 00:58:54;;;;;;;6.75;6.05;;;9.90;99.90;;;;;;2080993;28;20092;-72
2021/10/02 00:59:55;;;;;;;7.03;6.00;;;9.90;99.90;;;;;;2081032;28;20117;-73
2021/10/02 01:00:59;;;;;;;8.13;5.82;;;9.90;99.90;;;;;;2081088;28;20502;-72
2021/10/02 01:02:14;;;;;;;6.68;5.90;;;9.90;99.90;;;;;;2072481;28;20529;-73
2021/10/02 01:03:24;;;;;;;7.47;6.35;;;9.90;99.90;;;;;;2075029;28;20095;-72
2021/10/02 01:04:36;;;;;;;7.22;6.15;;;9.90;99.90;;;;;;2074105;28;20041;-73
2021/10/02 01:05:55;;;;;;;6.70;5.82;;;10.00;99.90;;;;;;2080887;28;20033;-73
2021/10/02 01:07:14;;;;;;;8.23;6.32;;;9.90;99.90;;;;;;2081384;28;20112;-73
2021/10/02 01:08:35;;;;;;;7.93;6.20;;;10.00;99.90;;;;;;2081700;28;20034;-73
2021/10/02 01:09:42;;;;;;;7.97;6.68;;;10.00;99.90;;;;;;2081697;28;20033;-72
2021/10/02 01:10:59;;;;;;;8.98;6.88;;;10.00;99.90;;;;;;2081203;28;20526;-72
2021/10/02 01:12:07;;;;;;;9.00;7.60;;;10.00;99.90;;;;;;2080571;28;20029;-72
2021/10/02 01:13:26;;;;;;;10.40;7.85;;;10.10;99.90;;;;;;2082731;28;20110;-72
2021/10/02 01:14:36;;;;;;;8.55;6.68;;;10.10;99.90;;;;;;2083235;28;20033;-72
2021/10/02 01:15:56;;;;;;;8.50;7.22;;;10.20;99.90;;;;;;2083450;28;20044;-72
2021/10/02 01:17:02;;;;;;;9.18;6.93;;;10.20;99.90;;;;;;2083236;28;20040;-72
2021/10/02 01:18:14;;;;;;;9.45;6.60;;;10.20;99.90;;;;;;2083526;28;20806;-71
2021/10/02 01:19:20;;;;;;;10.18;7.15;;;10.20;99.90;;;;;;2082821;28;20021;-71
2021/10/02 01:20:44;;;;;;;13.85;7.97;;;10.20;99.90;;;;;;2083578;28;20052;-72
2021/10/02 01:22:19;;;;;;;9.02;6.97;;;10.30;99.90;;;;;;2082372;28;20498;-72
2021/10/02 01:23:56;;;;;;;9.80;7.53;;;10.30;99.90;;;;;;2083981;28;20394;-72
2021/10/02 01:25:10;;;;;;;10.43;7.18;;;10.30;99.90;;;;;;2083122;28;20428;-73
2021/10/02 01:26:36;;;;;;;9.07;6.95;;;10.30;99.90;;;;;;2082686;28;20026;-72
2021/10/02 01:27:52;;;;;;;9.20;6.93;;;10.30;99.90;;;;;;2075718;28;20065;-72
2021/10/02 01:28:58;;;;;;;9.75;6.88;;;10.30;99.90;;;;;;2063391;28;20030;-72
2021/10/02 01:30:04;;;;;;;9.23;7.07;;;10.30;99.90;;;;;;2067782;28;20400;-72
2021/10/02 01:32:31;;;;;;;8.55;6.43;;;10.30;99.90;;;;;;2081587;28;20410;-72
2021/10/02 01:33:57;;;;;;;8.82;6.70;;;10.40;99.90;;;;;;2081503;28;20580;-72
2021/10/02 01:47:54;;;;;;;9.05;6.55;;;10.40;99.90;;;;;;2080938;28;20746;-73
2021/10/02 01:48:55;;;;;;;6.95;6.25;;;10.40;99.90;;;;;;2081381;28;20483;-73
2021/10/02 01:49:57;;;;;;;8.75;6.72;;;10.40;99.90;;;;;;2081438;28;20025;-73
2021/10/02 01:50:59;;;;;;;8.02;6.35;;;10.40;99.90;;;;;;2080843;28;20021;-73
2021/10/02 01:52:00;;;;;;;8.20;6.20;;;10.30;99.90;;;;;;2080141;28;20026;-73
2021/10/02 01:53:04;;;;;;;8.23;6.45;;;10.30;99.90;;;;;;2081831;28;20018;-73
2021/10/02 01:54:06;;;;;;;7.60;6.30;;;10.40;99.90;;;;;;2082194;28;20386;-73
2021/10/02 01:55:10;;;;;;;7.00;5.95;;;10.30;99.90;;;;;;2081889;28;20474;-73
2021/10/02 01:56:16;;;;;;;6.38;5.70;;;10.30;99.90;;;;;;2082377;28;20551;-73
2021/10/02 01:57:19;;;;;;;7.32;6.00;;;10.30;99.90;;;;;;2080880;28;20037;-73
2021/10/02 01:58:22;;;;;;;7.60;5.80;;;10.30;99.90;;;;;;2080820;28;20025;-72
2021/10/02 01:59:26;;;;;;;7.25;6.35;;;10.30;99.90;;;;;;2081434;28;20037;-73
2021/10/02 02:00:28;;;;;;;6.45;5.78;;;10.30;99.90;;;;;;2081025;28;20120;-73
2021/10/02 02:01:30;;;;;;;6.97;5.75;;;10.30;99.90;;;;;;2079993;28;20394;-73
2021/10/02 02:02:34;;;;;;;7.95;6.10;;;10.30;99.90;;;;;;2080575;28;20034;-72
2021/10/02 02:03:38;;;;;;;8.13;6.13;;;10.30;99.90;;;;;;2080563;28;20028;-73
2021/10/02 02:04:40;;;;;;;8.80;6.25;;;10.30;99.90;;;;;;2072821;28;20058;-73
2021/10/02 02:05:42;;;;;;;8.02;6.20;;;10.30;99.90;;;;;;2080558;28;20387;-73
2021/10/02 02:06:46;;;;;;;7.82;6.47;;;10.30;99.90;;;;;;2080613;28;20036;-72
2021/10/02 02:07:51;;;;;;;8.90;6.90;;;10.30;99.90;;;;;;2080489;28;20120;-72
2021/10/02 02:08:54;;;;;;;8.32;6.50;;;10.30;99.90;;;;;;2080474;28;20108;-72
2021/10/02 02:09:57;;;;;;;8.27;6.70;;;10.30;99.90;;;;;;2080267;28;20473;-73
2021/10/02 02:11:00;;;;;;;7.55;6.50;;;10.30;99.90;;;;;;2081209;28;20045;-72
2021/10/02 02:12:01;;;;;;;9.13;6.80;;;10.30;99.90;;;;;;2080399;28;20703;-72
2021/10/02 02:13:02;;;;;;;7.63;6.15;;;10.30;99.90;;;;;;2081233;28;20040;-72
2021/10/02 02:14:03;;;;;;;7.15;6.07;;;10.30;99.90;;;;;;2081305;28;20105;-73
2021/10/02 02:15:10;;;;;;;7.28;5.80;;;10.30;99.90;;;;;;2072446;28;20038;-72
2021/10/02 02:16:12;;;;;;;7.88;6.50;;;10.30;99.90;;;;;;2073293;28;20028;-72
2021/10/02 02:17:15;;;;;;;7.85;6.60;;;10.30;99.90;;;;;;2081156;28;20549;-72
2021/10/02 02:18:20;;;;;;;7.45;6.50;;;10.20;99.90;;;;;;2081141;28;20021;-72
2021/10/02 02:19:24;;;;;;;8.57;6.10;;;10.20;99.90;;;;;;2081015;28;20042;-72
2021/10/02 02:20:34;;;;;;;7.20;6.25;;;10.20;99.90;;;;;;2081123;28;20147;-71
2021/10/02 02:21:35;;;;;;;7.78;6.28;;;10.20;99.90;;;;;;2080373;28;20061;-72
2021/10/02 02:22:36;;;;;;;7.53;6.35;;;10.20;99.90;;;;;;2080937;28;20060;-72
2021/10/02 02:23:37;;;;;;;9.23;6.40;;;10.20;99.90;;;;;;2080408;28;20293;-71
2021/10/02 02:24:38;;;;;;;7.30;6.30;;;10.20;99.90;;;;;;2072407;28;20026;-72
2021/10/02 02:25:39;;;;;;;6.47;5.80;;;10.20;99.90;;;;;;2080403;28;20085;-71
2021/10/02 02:26:40;;;;;;;7.68;6.65;;;10.20;99.90;;;;;;2081112;28;20813;-72
2021/10/02 02:27:41;;;;;;;11.98;7.65;;;10.20;99.90;;;;;;2081156;28;20029;-72
2021/10/02 02:28:42;;;;;;;8.82;6.97;;;10.20;99.90;;;;;;2080239;28;20021;-72
2021/10/02 02:29:43;;;;;;;8.35;7.13;;;10.30;99.90;;;;;;2080378;28;20021;-72
2021/10/02 02:30:44;;;;;;;11.32;7.38;;;10.20;99.90;;;;;;2081136;28;20017;-72
2021/10/02 02:31:46;;;;;;;9.93;7.05;;;10.30;99.90;;;;;;2082909;28;20056;-72
2021/10/02 02:32:47;;;;;;;7.32;6.50;;;10.30;99.90;;;;;;2084311;28;20674;-72
2021/10/02 02:33:48;;;;;;;7.82;6.70;;;10.30;99.90;;;;;;2083870;28;20025;-72
2021/10/02 02:34:49;;;;;;;7.30;6.57;;;10.30;99.90;;;;;;2082088;28;20025;-72
2021/10/02 02:35:52;;;;;;;8.18;6.68;;;10.30;99.90;;;;;;2081448;28;20018;-72
2021/10/02 02:36:53;;;;;;;9.13;6.90;;;10.30;99.90;;;;;;2081087;28;20036;-72
2021/10/02 02:37:54;;;;;;;7.47;6.53;;;10.30;99.90;;;;;;2081666;28;20025;-72
2021/10/02 02:38:55;;;;;;;8.10;7.00;;;10.30;99.90;;;;;;2080400;28;20020;-71
2021/10/02 02:39:56;;;;;;;8.88;7.05;;;10.30;99.90;;;;;;2080219;28;20032;-71
2021/10/02 02:40:57;;;;;;;8.43;6.78;;;10.30;99.90;;;;;;2080358;28;20030;-72
2021/10/02 02:41:57;;;;;;;8.50;7.25;;;10.30;99.90;;;;;;2079592;28;20034;-72
2021/10/02 02:42:58;;;;;;;7.10;6.40;;;10.30;99.90;;;;;;2080584;28;20036;-72
2021/10/02 02:43:59;;;;;;;9.40;6.90;;;10.30;99.90;;;;;;2072278;28;20028;-71
2021/10/02 02:44:59;;;;;;;8.68;7.10;;;10.20;99.90;;;;;;2080524;28;20053;-71
2021/10/02 02:46:24;;;;;;;6.80;6.10;;;10.20;99.90;;;;;;2080939;28;20478;-72
2021/10/02 02:47:26;;;;;;;7.13;6.40;;;10.20;99.90;;;;;;2080953;28;20026;-73
2021/10/02 02:48:35;;;;;;;8.52;6.30;;;10.20;99.90;;;;;;2080645;28;20494;-73
2021/10/02 02:49:48;;;;;;;10.55;6.40;;;10.20;99.90;;;;;;2080224;28;20071;-72
2021/10/02 02:50:52;;;;;;;7.32;5.97;;;10.20;99.90;;;;;;2080355;28;20039;-72
2021/10/02 02:51:57;;;;;;;10.02;6.95;;;10.30;99.90;;;;;;2080022;28;20033;-72
2021/10/02 02:53:20;;;;;;;8.95;7.43;;;10.30;99.90;;;;;;2080949;28;20033;-73
2021/10/02 02:54:29;;;;;;;11.93;7.72;;;10.30;99.90;;;;;;2080233;28;20041;-73
2021/10/02 02:55:38;;;;;;;9.52;7.03;;;10.30;99.90;;;;;;2080141;28;20113;-73
2021/10/02 02:56:43;;;;;;;9.25;6.70;;;10.30;99.90;;;;;;2080960;28;20041;-73
2021/10/02 02:57:48;;;;;;;7.43;6.38;;;10.30;99.90;;;;;;2080837;28;20052;-73
2021/10/02 02:58:51;;;;;;;7.40;6.50;;;10.30;99.90;;;;;;2080691;28;20029;-70
2021/10/02 03:00:03;;;;;;;8.90;6.90;;;10.30;99.90;;;;;;2080621;28;20116;-73
2021/10/02 03:01:05;;;;;;;13.70;7.15;;;10.30;99.90;;;;;;2080829;28;20029;-73
2021/10/02 03:02:10;;;;;;;9.00;6.70;;;10.30;99.90;;;;;;2080456;28;20072;-73
2021/10/02 03:03:12;;;;;;;9.27;7.30;;;10.40;99.90;;;;;;2080431;28;20033;-73
2021/10/02 03:04:16;;;;;;;10.88;7.60;;;10.40;99.90;;;;;;2072288;28;20497;-73
2021/10/02 03:05:18;;;;;;;8.95;6.88;;;10.40;99.90;;;;;;2080393;28;20032;-74
2021/10/02 03:06:20;;;;;;;11.23;7.65;;;10.40;99.90;;;;;;2080790;28;20037;-73
2021/10/02 03:07:23;;;;;;;9.13;7.45;;;10.40;99.90;;;;;;2081057;28;20028;-73
2021/10/02 03:08:25;;;;;;;8.50;6.72;;;10.50;99.90;;;;;;2080973;28;20021;-73
2021/10/02 03:09:26;;;;;;;10.02;6.90;;;10.50;99.90;;;;;;2080898;28;20525;-73
2021/10/02 03:10:29;;;;;;;9.23;7.00;;;10.50;99.90;;;;;;2080181;28;20033;-73
2021/10/02 03:11:29;;;;;;;8.88;7.45;;;10.50;99.90;;;;;;2079632;28;20044;-74
2021/10/02 03:12:40;;;;;;;9.05;6.88;;;10.50;99.90;;;;;;2080643;28;20022;-74
2021/10/02 03:13:43;;;;;;;8.73;6.88;;;10.50;99.90;;;;;;2080816;28;20056;-72
2021/10/02 03:14:47;;;;;;;7.68;6.25;;;10.50;99.90;;;;;;2080121;28;20037;-73
2021/10/02 03:15:49;;;;;;;8.25;6.97;;;10.50;99.90;;;;;;2080059;28;20529;-73
2021/10/02 03:16:53;;;;;;;10.13;7.32;;;10.50;99.90;;;;;;2080687;28;20112;-73
2021/10/02 03:17:54;;;;;;;9.85;7.07;;;10.50;99.90;;;;;;2080622;28;20509;-73
2021/10/02 03:18:59;;;;;;;11.05;7.50;;;10.60;99.90;;;;;;2080493;28;20409;-73
2021/10/02 03:20:01;;;;;;;9.10;6.90;;;10.60;99.90;;;;;;2080546;28;20029;-73
2021/10/02 03:21:01;;;;;;;12.27;7.35;;;10.60;99.90;;;;;;2080572;28;20759;-73
2021/10/02 03:22:07;;;;;;;9.65;7.18;;;10.60;99.90;;;;;;2079687;28;20025;-73
2021/10/02 03:23:09;;;;;;;10.27;7.40;;;10.60;99.90;;;;;;2080634;28;20095;-73
2021/10/02 03:24:10;;;;;;;9.05;7.10;;;10.60;99.90;;;;;;2080494;28;20383;-73
2021/10/02 03:25:11;;;;;;;9.80;7.30;;;10.60;99.90;;;;;;2080491;28;20034;-73
2021/10/02 03:26:12;;;;;;;8.70;6.95;;;10.60;99.90;;;;;;2079970;28;20029;-73
2021/10/02 03:27:14;;;;;;;10.05;7.00;;;10.60;99.90;;;;;;2079997;28;20114;-74
2021/10/02 03:28:18;;;;;;;9.32;6.65;;;10.60;99.90;;;;;;2080531;28;20040;-73
2021/10/02 03:29:19;;;;;;;8.52;6.90;;;10.60;99.90;;;;;;2080532;28;20155;-73
2021/10/02 03:30:21;;;;;;;10.35;7.38;;;10.60;99.90;;;;;;2080422;28;20093;-73
2021/10/02 03:31:22;;;;;;;10.30;7.25;;;10.60;99.90;;;;;;2079142;28;20111;-73
2021/10/02 03:32:24;;;;;;;13.43;7.50;;;10.70;99.90;;;;;;2079855;28;20124;-73
2021/10/02 03:33:25;;;;;;;9.65;7.10;;;10.70;99.90;;;;;;2080607;28;20126;-73
2021/10/02 03:34:26;;;;;;;7.80;6.43;;;10.70;99.90;;;;;;2080494;28;20029;-73
2021/10/02 03:35:27;;;;;;;10.40;6.90;;;10.70;99.90;;;;;;2080303;28;20438;-73
2021/10/02 03:36:28;;;;;;;7.93;6.60;;;10.70;99.90;;;;;;2080528;28;20040;-73
2021/10/02 03:37:29;;;;;;;6.57;5.80;;;10.70;99.90;;;;;;2080659;28;20029;-73
2021/10/02 03:38:31;;;;;;;8.88;6.85;;;10.60;99.90;;;;;;2080749;28;20075;-73
2021/10/02 03:39:32;;;;;;;9.80;7.35;;;10.60;99.90;;;;;;2080892;28;20187;-73
2021/10/02 03:40:33;;;;;;;9.35;6.80;;;10.70;99.90;;;;;;2080519;28;20434;-73
2021/10/02 03:41:36;;;;;;;8.38;6.70;;;10.60;99.90;;;;;;2079796;28;20030;-74
2021/10/02 03:42:46;;;;;;;10.32;6.60;;;10.60;99.90;;;;;;2080551;28;20104;-73
2021/10/02 03:43:47;;;;;;;7.93;6.13;;;10.60;99.90;;;;;;2080586;28;20018;-73
2021/10/02 03:44:50;;;;;;;10.05;7.22;;;10.60;99.90;;;;;;2079912;28;20075;-72
2021/10/02 03:45:50;;;;;;;8.10;7.10;;;10.60;99.90;;;;;;2079879;28;20017;-71
2021/10/02 03:46:51;;;;;;;8.52;6.40;;;10.60;99.90;;;;;;2080465;28;20094;-71
2021/10/02 03:47:51;;;;;;;10.23;6.82;;;10.60;99.90;;;;;;2079846;28;20104;-71
2021/10/02 03:48:52;;;;;;;8.65;6.90;;;10.60;99.90;;;;;;2079631;28;20417;-72
2021/10/02 03:49:53;;;;;;;8.73;6.85;;;10.60;99.90;;;;;;2080282;28;20021;-71
2021/10/02 03:50:54;;;;;;;10.27;7.25;;;10.60;99.90;;;;;;2079703;28;20057;-72
2021/10/02 03:51:54;;;;;;;9.18;7.00;;;10.60;99.90;;;;;;2078999;28;20072;-71
2021/10/02 03:52:55;;;;;;;8.85;7.15;;;10.60;99.90;;;;;;2080439;28;20520;-71
2021/10/02 03:53:56;;;;;;;9.43;7.22;;;10.60;99.90;;;;;;2079666;28;20380;-71
2021/10/02 03:54:56;;;;;;;10.00;6.78;;;10.60;99.90;;;;;;2079791;28;20052;-72
2021/10/02 03:55:58;;;;;;;8.00;6.70;;;10.60;99.90;;;;;;2080358;28;20025;-71
2021/10/02 03:57:00;;;;;;;9.07;6.85;;;10.60;99.90;;;;;;2080309;28;20057;-75
2021/10/02 03:58:00;;;;;;;8.63;6.78;;;10.60;99.90;;;;;;2080237;28;20382;-72
2021/10/02 03:59:01;;;;;;;8.30;6.68;;;10.60;99.90;;;;;;2080326;28;20037;-72
2021/10/02 04:00:03;;;;;;;8.48;6.40;;;10.60;99.90;;;;;;2080233;28;20030;-71
2021/10/02 04:01:05;;;;;;;7.80;6.50;;;10.60;99.90;;;;;;2080239;28;20025;-72
2021/10/02 04:02:06;;;;;;;7.25;6.40;;;10.60;99.90;;;;;;2079880;28;20037;-72
2021/10/02 04:03:06;;;;;;;10.32;7.53;;;10.60;99.90;;;;;;2080393;28;20057;-72
2021/10/02 04:04:07;;;;;;;12.40;7.25;;;10.60;99.90;;;;;;2082369;28;20080;-72
2021/10/02 04:05:09;;;;;;;7.60;6.75;;;10.60;99.90;;;;;;2083117;28;20038;-71
2021/10/02 04:06:09;;;;;;;8.43;7.00;;;10.60;99.90;;;;;;2082568;28;20635;-73
2021/10/02 04:07:10;;;;;;;10.52;7.32;;;10.60;99.90;;;;;;2082503;28;20063;-73
2021/10/02 04:08:10;;;;;;;11.13;7.78;;;10.60;99.90;;;;;;2083062;28;20021;-72
2021/10/02 04:09:11;;;;;;;10.65;7.60;;;10.60;99.90;;;;;;2082536;28;20038;-73
2021/10/02 04:10:12;;;;;;;11.15;7.20;;;10.60;99.90;;;;;;2082463;28;20047;-72
2021/10/02 04:11:12;;;;;;;10.55;7.30;;;10.60;99.90;;;;;;2082467;28;20029;-72
2021/10/02 04:12:13;;;;;;;11.38;7.15;;;10.60;99.90;;;;;;2083012;28;20037;-72
2021/10/02 04:13:14;;;;;;;8.38;6.75;;;10.60;99.90;;;;;;2082333;28;20075;-72
2021/10/02 04:14:15;;;;;;;8.00;7.20;;;10.60;99.90;;;;;;2082425;28;20092;-72
2021/10/02 04:15:15;;;;;;;12.43;7.70;;;10.60;99.90;;;;;;2082504;28;20040;-72
2021/10/02 04:16:16;;;;;;;10.00;7.00;;;10.60;99.90;;;;;;2082517;28;20056;-71
2021/10/02 04:17:17;;;;;;;8.68;6.85;;;10.60;99.90;;;;;;2082888;28;20045;-73
2021/10/02 04:18:18;;;;;;;11.25;7.18;;;10.60;99.90;;;;;;2082542;28;20033;-72
2021/10/02 04:19:18;;;;;;;9.65;7.00;;;10.50;99.90;;;;;;2082376;28;20029;-71
2021/10/02 04:20:19;;;;;;;9.10;6.65;;;10.50;99.90;;;;;;2082957;28;20743;-71
2021/10/02 04:21:19;;;;;;;8.35;7.05;;;10.50;99.90;;;;;;2082159;28;20402;-72
2021/10/02 04:22:20;;;;;;;10.15;7.50;;;10.50;99.90;;;;;;2082961;28;20021;-72
2021/10/02 04:23:20;;;;;;;7.93;7.13;;;10.50;99.90;;;;;;2082979;28;20052;-72
2021/10/02 04:24:23;;;;;;;11.25;7.82;;;10.50;99.90;;;;;;2083046;28;20123;-72
2021/10/02 04:25:23;;;;;;;9.10;7.55;;;10.50;99.90;;;;;;2082952;28;20053;-71
2021/10/02 04:26:24;;;;;;;8.82;7.45;;;10.50;99.90;;;;;;2083015;28;20033;-71
2021/10/02 04:27:25;;;;;;;10.45;7.18;;;10.50;99.90;;;;;;2082340;28;20033;-73
2021/10/02 04:28:25;;;;;;;10.55;7.07;;;10.50;99.90;;;;;;2066158;28;20030;-72
2021/10/02 04:29:27;;;;;;;10.82;7.50;;;10.50;99.90;;;;;;2074220;28;20041;-71
2021/10/02 04:30:27;;;;;;;11.90;7.65;;;10.50;99.90;;;;;;2083019;28;20079;-72
2021/10/02 04:31:28;;;;;;;10.30;7.80;;;10.50;99.90;;;;;;2082265;28;20044;-72
2021/10/02 04:32:29;;;;;;;8.70;7.20;;;10.50;99.90;;;;;;2082369;28;20084;-72
2021/10/02 04:33:30;;;;;;;10.20;7.32;;;10.50;99.90;;;;;;2082447;28;20033;-71
2021/10/02 04:34:31;;;;;;;11.20;7.53;;;10.50;99.90;;;;;;2082910;28;20048;-71
2021/10/02 04:35:32;;;;;;;8.02;7.05;;;10.50;99.90;;;;;;2083037;28;20470;-71
2021/10/02 04:36:33;;;;;;;9.82;7.25;;;10.50;99.90;;;;;;2082369;28;20071;-71
2021/10/02 04:37:34;;;;;;;9.90;7.60;;;10.50;99.90;;;;;;2082458;28;20034;-72
2021/10/02 04:38:34;;;;;;;8.82;7.80;;;10.50;99.90;;;;;;2083107;28;20033;-72
2021/10/02 04:39:35;;;;;;;12.30;7.82;;;10.50;99.90;;;;;;2082921;28;20044;-70
2021/10/02 04:40:36;;;;;;;11.25;7.72;;;10.50;99.90;;;;;;2082900;28;20025;-72
2021/10/02 04:41:36;;;;;;;10.68;8.00;;;10.50;99.90;;;;;;2082404;28;20033;-71
2021/10/02 04:42:37;;;;;;;9.27;7.70;;;10.50;99.90;;;;;;2082415;28;20683;-71
2021/10/02 04:43:43;;;;;;;8.45;7.43;;;10.50;99.90;;;;;;2082588;28;20033;-72
2021/10/02 04:44:43;;;;;;;9.43;7.32;;;10.50;99.90;;;;;;2083165;28;20022;-72
2021/10/02 04:45:44;;;;;;;7.75;6.90;;;10.50;99.90;;;;;;2083063;28;20028;-72
2021/10/02 04:46:45;;;;;;;8.90;6.82;;;10.50;99.90;;;;;;2083151;28;20021;-72
2021/10/02 04:47:46;;;;;;;8.68;6.95;;;10.50;99.90;;;;;;2083087;28;20033;-71
2021/10/02 04:48:47;;;;;;;10.35;8.35;;;10.50;99.90;;;;;;2083172;28;20104;-74
2021/10/02 04:49:49;;;;;;;9.85;7.07;;;10.50;99.90;;;;;;2082444;28;20080;-74
2021/10/02 04:50:50;;;;;;;8.27;7.20;;;10.50;99.90;;;;;;2082242;28;20057;-74
2021/10/02 04:51:50;;;;;;;9.13;7.07;;;10.50;99.90;;;;;;2082212;28;20039;-73
2021/10/02 04:52:54;;;;;;;9.98;7.18;;;10.50;99.90;;;;;;2082867;28;20026;-73
2021/10/02 04:53:58;;;;;;;11.23;8.10;;;10.50;99.90;;;;;;2082818;28;20021;-73
2021/10/02 04:54:59;;;;;;;9.57;7.53;;;10.50;99.90;;;;;;2083086;28;20030;-73
2021/10/02 04:56:00;;;;;;;9.45;7.10;;;10.50;99.90;;;;;;2082370;28;20032;-73
2021/10/02 04:57:01;;;;;;;9.40;7.40;;;10.50;99.90;;;;;;2074305;28;20025;-73
2021/10/02 04:58:02;;;;;;;13.88;7.55;;;10.50;99.90;;;;;;2082476;28;20044;-74
2021/10/02 04:59:02;;;;;;;8.98;7.50;;;10.50;99.90;;;;;;2082169;28;20497;-72
2021/10/02 05:00:05;;;;;;;9.82;7.80;;;10.50;99.90;;;;;;2082224;28;20060;-72
2021/10/02 05:01:08;;;;;;;12.30;8.00;;;10.50;99.90;;;;;;2082893;28;20026;-72
2021/10/02 05:02:09;;;;;;;10.30;7.95;;;10.50;99.90;;;;;;2082548;28;20025;-71
2021/10/02 05:03:09;;;;;;;9.77;7.72;;;10.50;99.90;;;;;;2082868;28;20026;-71
2021/10/02 05:04:10;;;;;;;12.98;8.25;;;10.50;99.90;;;;;;2082948;28;20087;-72
2021/10/02 05:05:11;;;;;;;10.88;7.72;;;10.50;99.90;;;;;;2082894;28;20091;-71
2021/10/02 05:06:11;;;;;;;9.93;7.40;;;10.50;99.90;;;;;;2082986;28;20033;-71
2021/10/02 05:07:12;;;;;;;9.70;7.70;;;10.50;99.90;;;;;;2083216;28;20057;-71
2021/10/02 05:08:12;;;;;;;9.07;7.32;;;10.50;99.90;;;;;;2083268;28;20065;-72
2021/10/02 05:09:13;;;;;;;10.07;7.32;;;10.50;99.90;;;;;;2082556;28;20052;-71
2021/10/02 05:10:13;;;;;;;9.35;7.18;;;10.50;99.90;;;;;;2082822;28;20033;-71
2021/10/02 05:11:14;;;;;;;9.10;7.53;;;10.50;99.90;;;;;;2084486;28;20486;-71
2021/10/02 05:12:15;;;;;;;10.00;7.18;;;10.50;99.90;;;;;;2084648;28;20037;-71
2021/10/02 05:13:16;;;;;;;8.90;7.35;;;10.50;99.90;;;;;;2068377;28;20033;-72
2021/10/02 05:14:16;;;;;;;9.80;7.35;;;10.50;99.90;;;;;;2076015;28;20037;-71
2021/10/02 05:15:17;;;;;;;10.95;7.15;;;10.50;99.90;;;;;;2083806;28;20037;-73
2021/10/02 05:16:17;;;;;;;11.70;8.20;;;10.40;99.90;;;;;;2081781;28;20052;-71
2021/10/02 05:17:18;;;;;;;8.63;7.03;;;10.50;99.90;;;;;;2082190;28;20030;-71
2021/10/02 05:18:19;;;;;;;8.40;7.32;;;10.50;99.90;;;;;;2082181;28;20025;-72
2021/10/02 05:19:19;;;;;;;8.65;7.47;;;10.50;99.90;;;;;;2081656;28;20072;-74
2021/10/02 05:20:20;;;;;;;10.63;7.53;;;10.50;99.90;;;;;;2081682;28;20033;-72
2021/10/02 05:21:20;;;;;;;11.88;7.65;;;10.50;99.90;;;;;;2080782;28;20026;-73
2021/10/02 05:22:23;;;;;;;10.43;8.18;;;10.50;99.90;;;;;;2081828;28;20032;-73
2021/10/02 05:23:24;;;;;;;9.88;7.57;;;10.50;99.90;;;;;;2081759;28;20022;-74
2021/10/02 05:24:25;;;;;;;9.70;7.55;;;10.50;99.90;;;;;;2081555;28;20437;-74
2021/10/02 05:25:26;;;;;;;9.00;7.45;;;10.50;99.90;;;;;;2081710;28;20643;-73
2021/10/02 05:26:26;;;;;;;8.57;7.03;;;10.60;99.90;;;;;;2081675;28;20114;-74
2021/10/02 05:27:27;;;;;;;9.23;7.20;;;10.60;99.90;;;;;;2081018;28;20040;-74
2021/10/02 05:28:27;;;;;;;9.43;7.47;;;10.60;99.90;;;;;;2081042;28;20093;-73
2021/10/02 05:29:28;;;;;;;9.15;7.15;;;10.60;99.90;;;;;;2081663;28;20397;-72
2021/10/02 05:30:29;;;;;;;10.57;7.88;;;10.60;99.90;;;;;;2081416;28;20052;-74
2021/10/02 05:31:29;;;;;;;10.98;8.15;;;10.60;99.90;;;;;;2071873;28;20104;-74
2021/10/02 05:32:30;;;;;;;11.10;7.65;;;10.60;99.90;;;;;;2072632;28;20113;-73
2021/10/02 05:33:30;;;;;;;9.90;7.22;;;10.60;99.90;;;;;;2081510;28;20029;-72
2021/10/02 05:34:31;;;;;;;12.50;8.57;;;10.60;99.90;;;;;;2081677;28;20516;-76
2021/10/02 05:35:32;;;;;;;12.93;7.63;;;10.70;99.90;;;;;;2081122;28;20541;-72
2021/10/02 05:36:34;;;;;;;11.02;8.23;;;10.70;99.90;;;;;;2081086;28;20401;-73
2021/10/02 05:37:35;;;;;;;8.63;7.07;;;10.70;99.90;;;;;;2081786;28;20064;-74
2021/10/02 05:38:35;;;;;;;8.05;7.25;;;10.70;99.90;;;;;;2081706;28;20159;-73
2021/10/02 05:39:36;;;;;;;8.93;7.40;;;10.70;99.90;;;;;;2082281;28;20072;-73
2021/10/02 05:40:36;;;;;;;9.45;6.70;;;10.70;99.90;;;;;;2082489;28;20029;-74
2021/10/02 05:41:38;;;;;;;9.70;7.35;;;10.70;99.90;;;;;;2081455;28;20045;-74
2021/10/02 05:42:39;;;;;;;9.82;7.65;;;10.70;99.90;;;;;;2082169;28;20029;-71
2021/10/02 05:43:40;;;;;;;8.30;6.80;;;10.70;99.90;;;;;;2081162;28;20033;-74
2021/10/02 05:44:40;;;;;;;11.30;7.70;;;10.70;99.90;;;;;;2080861;28;20033;-74
2021/10/02 05:45:41;;;;;;;9.82;7.63;;;10.70;99.90;;;;;;2081499;28;20029;-73
2021/10/02 05:46:41;;;;;;;10.18;7.63;;;10.70;99.90;;;;;;2081435;28;20022;-73
2021/10/02 05:47:42;;;;;;;9.52;7.28;;;10.70;99.90;;;;;;2080686;28;20061;-74
2021/10/02 05:48:43;;;;;;;10.82;7.00;;;10.60;99.90;;;;;;2080730;28;20071;-75
2021/10/02 05:49:44;;;;;;;8.45;7.28;;;10.70;99.90;;;;;;2081497;28;20028;-71
2021/10/02 05:50:45;;;;;;;11.25;7.82;;;10.60;99.90;;;;;;2081358;28;20482;-74
2021/10/02 05:51:46;;;;;;;10.05;7.82;;;10.70;99.90;;;;;;2080511;28;20029;-74
2021/10/02 05:52:46;;;;;;;11.50;8.05;;;10.60;99.90;;;;;;2080819;28;20036;-73
2021/10/02 05:53:47;;;;;;;11.98;8.23;;;10.70;99.90;;;;;;2080744;28;20057;-74
2021/10/02 05:54:47;;;;;;;10.90;7.68;;;10.70;99.90;;;;;;2080696;28;20029;-73
2021/10/02 05:55:48;;;;;;;13.43;7.75;;;10.60;99.90;;;;;;2072482;28;20080;-73
2021/10/02 05:56:49;;;;;;;8.90;7.20;;;10.60;99.90;;;;;;2081000;28;20021;-73
2021/10/02 05:57:49;;;;;;;9.85;7.60;;;10.70;99.90;;;;;;2081451;28;20497;-73
2021/10/02 05:58:51;;;;;;;10.60;7.70;;;10.70;99.90;;;;;;2081301;28;20056;-73
2021/10/02 05:59:51;;;;;;;12.60;7.30;;;10.70;99.90;;;;;;2081052;28;20021;-73
2021/10/02 06:00:52;;;;;;;12.15;7.57;;;10.70;99.90;;;;;;2081011;28;20382;-71
2021/10/02 06:01:53;;;;;;;10.43;8.02;;;10.70;99.90;;;;;;2080169;28;20021;-72
2021/10/02 06:02:56;;;;;;;10.70;7.90;;;10.70;99.90;;;;;;2081361;28;20018;-73
2021/10/02 06:03:57;;;;;;;9.55;7.68;;;10.70;99.90;;;;;;2081446;28;20035;-73
2021/10/02 06:04:57;;;;;;;9.68;7.30;;;10.80;99.90;;;;;;2080803;28;20037;-73
2021/10/02 06:06:00;;;;;;;9.35;7.47;;;10.80;99.90;;;;;;2080899;28;20014;-72
2021/10/02 06:07:01;;;;;;;9.95;7.43;;;10.80;99.90;;;;;;2081361;28;20045;-74
2021/10/02 06:08:01;;;;;;;8.32;7.35;;;10.80;99.90;;;;;;2081383;28;20021;-73
2021/10/02 06:09:02;;;;;;;10.73;7.60;;;10.80;99.90;;;;;;2080761;28;20068;-72
2021/10/02 06:10:03;;;;;;;10.05;7.15;;;10.80;99.90;;;;;;2081195;28;20478;-72
2021/10/02 06:11:04;;;;;;;12.10;7.63;;;10.80;99.90;;;;;;2080322;28;20097;-72
2021/10/02 06:12:05;;;;;;;9.63;7.15;;;10.90;99.90;;;;;;2079978;28;20109;-71
2021/10/02 06:13:06;;;;;;;9.95;7.00;;;10.90;99.90;;;;;;2080671;28;20036;-72
2021/10/02 06:14:06;;;;;;;8.00;7.18;;;10.90;99.90;;;;;;2081086;28;20092;-74
2021/10/02 06:15:07;;;;;;;8.95;6.97;;;10.90;99.90;;;;;;2081513;28;20037;-75
2021/10/02 06:16:08;;;;;;;7.85;6.57;;;10.90;99.90;;;;;;2081357;28;20552;-73
2021/10/02 06:17:08;;;;;;;11.30;7.80;;;10.90;99.90;;;;;;2080331;28;20030;-75
2021/10/02 06:18:09;;;;;;;10.07;7.50;;;10.90;99.90;;;;;;2080513;28;20089;-75
2021/10/02 06:19:09;;;;;;;10.07;7.82;;;10.90;99.90;;;;;;2080984;28;20056;-73
2021/10/02 06:20:10;;;;;;;9.43;7.88;;;11.00;99.90;;;;;;2081051;28;20494;-73
2021/10/02 06:21:14;;;;;;;10.27;7.32;;;11.00;99.90;;;;;;2080870;28;20021;-72
2021/10/02 06:22:14;;;;;;;9.20;6.93;;;11.00;99.90;;;;;;2081342;28;20033;-73
2021/10/02 06:23:15;;;;;;;9.57;6.95;;;11.00;99.90;;;;;;2081117;28;20067;-75
2021/10/02 06:24:16;;;;;;;11.10;7.40;;;11.10;99.90;;;;;;2081243;28;20073;-73